sensor_id;sensor_type;location;lat;lon;timestamp;temperature;humidity
37974;DHT22;23796;51.458;7.000;2023-03-01T00:01:16;1.30;99.90
37974;DHT22;23796;51.458;7.000;2023-03-01T00:03:45;1.30;99.90
37974;DHT22;23796;51.458;7.000;2023-03-01T00:06:11;1.20;99.90
37974;DHT22;23796;51.458;7.000;2023-03-01T00:08:37;1.20;99.90
37974;DHT22;23796;51.458;7.000;2023-03-01T00:11:09;1.20;99.90
37974;DHT22;23796;51.458;7.000;2023-03-01T00:13:38;1.20;99.90
37974;DHT22;23796;51.458;7.000;2023-03-01T00:16:08;1.20;99.90
37974;DHT22;23796;51.458;7.000;2023-03-01T00:18:34;1.10;99.90
37974;DHT22;23796;51.458;7.000;2023-03-01T00:21:00;1.10;99.90
37974;DHT22;23796;51.458;7.000;2023-03-01T00:23:27;1.10;99.90
37974;DHT22;23796;51.458;7.000;2023-03-01T00:25:53;1.10;99.90
37974;DHT22;23796;51.458;7.000;2023-03-01T00:28:20;1.10;99.90
37974;DHT22;23796;51.458;7.000;2023-03-01T00:30:49;1.10;99.90
37974;DHT22;23796;51.458;7.000;2023-03-01T00:33:14;1.10;99.90
37974;DHT22;23796;51.458;7.000;2023-03-01T00:35:40;1.00;99.90
37974;DHT22;23796;51.458;7.000;2023-03-01T00:38:06;1.10;99.90
37974;DHT22;23796;51.458;7.000;2023-03-01T00:40:34;1.00;99.90
37974;DHT22;23796;51.458;7.000;2023-03-01T00:42:59;1.10;99.90
37974;DHT22;23796;51.458;7.000;2023-03-01T00:45:25;1.10;99.90
37974;DHT22;23796;51.458;7.000;2023-03-01T00:47:51;1.00;99.90
37974;DHT22;23796;51.458;7.000;2023-03-01T00:50:23;1.00;99.90
37974;DHT22;23796;51.458;7.000;2023-03-01T00:52:54;1.00;99.90
37974;DHT22;23796;51.458;7.000;2023-03-01T00:55:23;1.00;99.90
37974;DHT22;23796;51.458;7.000;2023-03-01T00:57:49;0.90;99.90
37974;DHT22;23796;51.458;7.000;2023-03-01T01:00:15;0.70;99.90
37974;DHT22;23796;51.458;7.000;2023-03-01T01:02:40;0.70;99.90
37974;DHT22;23796;51.458;7.000;2023-03-01T01:05:09;0.70;99.90
37974;DHT22;23796;51.458;7.000;2023-03-01T01:07:35;0.60;99.90
37974;DHT22;23796;51.458;7.000;2023-03-01T01:10:00;0.70;99.90
37974;DHT22;23796;51.458;7.000;2023-03-01T01:12:26;0.70;99.90
37974;DHT22;23796;51.458;7.000;2023-03-01T01:14:52;0.70;99.90
37974;DHT22;23796;51.458;7.000;2023-03-01T01:17:17;0.60;99.90
37974;DHT22;23796;51.458;7.000;2023-03-01T01:19:45;0.70;99.90
37974;DHT22;23796;51.458;7.000;2023-03-01T01:22:13;0.70;99.90
37974;DHT22;23796;51.458;7.000;2023-03-01T01:24:43;0.70;99.90
37974;DHT22;23796;51.458;7.000;2023-03-01T01:27:11;0.70;99.90
37974;DHT22;23796;51.458;7.000;2023-03-01T01:29:37;0.70;99.90
37974;DHT22;23796;51.458;7.000;2023-03-01T01:32:03;0.70;99.90
37974;DHT22;23796;51.458;7.000;2023-03-01T01:34:28;0.70;99.90
37974;DHT22;23796;51.458;7.000;2023-03-01T01:36:54;0.60;99.90
37974;DHT22;23796;51.458;7.000;2023-03-01T01:39:22;0.60;99.90
37974;DHT22;23796;51.458;7.000;2023-03-01T01:41:48;0.60;99.90
37974;DHT22;23796;51.458;7.000;2023-03-01T01:44:26;0.60;99.90
37974;DHT22;23796;51.458;7.000;2023-03-01T01:47:07;0.60;99.90
37974;DHT22;23796;51.458;7.000;2023-03-01T01:49:38;0.60;99.90
37974;DHT22;23796;51.458;7.000;2023-03-01T01:55:00;0.50;99.90
37974;DHT22;23796;51.458;7.000;2023-03-01T01:57:54;0.50;99.90
37974;DHT22;23796;51.458;7.000;2023-03-01T02:00:26;0.40;99.90
37974;DHT22;23796;51.458;7.000;2023-03-01T02:02:59;0.40;99.90
37974;DHT22;23796;51.458;7.000;2023-03-01T02:08:23;0.40;99.90
37974;DHT22;23796;51.458;7.000;2023-03-01T02:10:51;0.40;99.90
37974;DHT22;23796;51.458;7.000;2023-03-01T02:13:21;0.40;99.90
37974;DHT22;23796;51.458;7.000;2023-03-01T02:18:17;0.40;99.90
37974;DHT22;23796;51.458;7.000;2023-03-01T02:23:31;0.40;99.90
37974;DHT22;23796;51.458;7.000;2023-03-01T02:26:11;0.40;99.90
37974;DHT22;23796;51.458;7.000;2023-03-01T02:28:41;0.40;99.90
37974;DHT22;23796;51.458;7.000;2023-03-01T02:31:11;0.30;99.90
37974;DHT22;23796;51.458;7.000;2023-03-01T02:33:58;0.40;99.90
37974;DHT22;23796;51.458;7.000;2023-03-01T02:36:28;0.40;99.90
37974;DHT22;23796;51.458;7.000;2023-03-01T02:38:57;0.40;99.90
37974;DHT22;23796;51.458;7.000;2023-03-01T02:41:25;0.40;99.90
37974;DHT22;23796;51.458;7.000;2023-03-01T02:43:52;0.40;99.90
37974;DHT22;23796;51.458;7.000;2023-03-01T02:46:20;0.40;99.90
37974;DHT22;23796;51.458;7.000;2023-03-01T02:48:56;0.40;99.90
37974;DHT22;23796;51.458;7.000;2023-03-01T02:52:04;0.30;99.90
37974;DHT22;23796;51.458;7.000;2023-03-01T02:54:35;0.20;99.90
37974;DHT22;23796;51.458;7.000;2023-03-01T02:57:04;0.10;99.90
37974;DHT22;23796;51.458;7.000;2023-03-01T02:59:32;0.20;99.90
37974;DHT22;23796;51.458;7.000;2023-03-01T03:02:05;0.20;99.90
37974;DHT22;23796;51.458;7.000;2023-03-01T03:04:31;0.20;99.90
37974;DHT22;23796;51.458;7.000;2023-03-01T03:06:57;0.20;99.90
37974;DHT22;23796;51.458;7.000;2023-03-01T03:09:25;0.20;99.90
37974;DHT22;23796;51.458;7.000;2023-03-01T03:11:50;0.10;99.90
37974;DHT22;23796;51.458;7.000;2023-03-01T03:14:17;0.10;99.90
37974;DHT22;23796;51.458;7.000;2023-03-01T03:16:45;0.00;99.90
37974;DHT22;23796;51.458;7.000;2023-03-01T03:19:12;0.10;99.90
37974;DHT22;23796;51.458;7.000;2023-03-01T03:21:38;0.10;99.90
37974;DHT22;23796;51.458;7.000;2023-03-01T03:24:04;0.00;99.90
37974;DHT22;23796;51.458;7.000;2023-03-01T03:26:30;0.00;99.90
37974;DHT22;23796;51.458;7.000;2023-03-01T03:28:58;0.00;99.90
37974;DHT22;23796;51.458;7.000;2023-03-01T03:31:24;0.00;99.90
37974;DHT22;23796;51.458;7.000;2023-03-01T03:33:50;0.00;99.90
37974;DHT22;23796;51.458;7.000;2023-03-01T03:36:23;0.00;99.90
37974;DHT22;23796;51.458;7.000;2023-03-01T03:38:52;0.00;99.90
37974;DHT22;23796;51.458;7.000;2023-03-01T03:41:19;-0.10;99.90
37974;DHT22;23796;51.458;7.000;2023-03-01T03:43:45;-0.10;99.90
37974;DHT22;23796;51.458;7.000;2023-03-01T03:46:13;-0.10;99.90
37974;DHT22;23796;51.458;7.000;2023-03-01T03:48:41;-0.10;99.90
37974;DHT22;23796;51.458;7.000;2023-03-01T03:51:16;-0.10;99.90
37974;DHT22;23796;51.458;7.000;2023-03-01T03:53:43;-0.10;99.90
37974;DHT22;23796;51.458;7.000;2023-03-01T03:56:09;0.00;99.90
37974;DHT22;23796;51.458;7.000;2023-03-01T03:58:37;-0.10;99.90
37974;DHT22;23796;51.458;7.000;2023-03-01T04:01:04;-0.10;99.90
37974;DHT22;23796;51.458;7.000;2023-03-01T04:03:32;-0.10;99.90
37974;DHT22;23796;51.458;7.000;2023-03-01T04:06:00;-0.20;99.90
37974;DHT22;23796;51.458;7.000;2023-03-01T04:08:27;-0.20;99.90
37974;DHT22;23796;51.458;7.000;2023-03-01T04:11:01;-0.20;99.90
37974;DHT22;23796;51.458;7.000;2023-03-01T04:13:47;-0.20;99.90
37974;DHT22;23796;51.458;7.000;2023-03-01T04:16:12;-0.30;99.90
37974;DHT22;23796;51.458;7.000;2023-03-01T04:18:38;-0.30;99.90
37974;DHT22;23796;51.458;7.000;2023-03-01T04:21:04;-0.30;99.90
37974;DHT22;23796;51.458;7.000;2023-03-01T04:23:29;-0.30;99.90
37974;DHT22;23796;51.458;7.000;2023-03-01T04:25:57;-0.40;99.90
37974;DHT22;23796;51.458;7.000;2023-03-01T04:28:26;-0.40;99.90
37974;DHT22;23796;51.458;7.000;2023-03-01T04:30:54;-0.40;99.90
37974;DHT22;23796;51.458;7.000;2023-03-01T04:33:20;-0.40;99.90
37974;DHT22;23796;51.458;7.000;2023-03-01T04:35:46;-0.40;99.90
37974;DHT22;23796;51.458;7.000;2023-03-01T04:38:15;-0.40;99.90
37974;DHT22;23796;51.458;7.000;2023-03-01T04:40:41;-0.50;99.90
37974;DHT22;23796;51.458;7.000;2023-03-01T04:43:10;-0.40;99.90
37974;DHT22;23796;51.458;7.000;2023-03-01T04:45:36;-0.40;99.90
37974;DHT22;23796;51.458;7.000;2023-03-01T04:48:03;-0.50;99.90
37974;DHT22;23796;51.458;7.000;2023-03-01T04:50:29;-0.50;99.90
37974;DHT22;23796;51.458;7.000;2023-03-01T04:52:55;-0.50;99.90
37974;DHT22;23796;51.458;7.000;2023-03-01T04:55:27;-0.50;99.90
37974;DHT22;23796;51.458;7.000;2023-03-01T04:57:53;-0.50;99.90
37974;DHT22;23796;51.458;7.000;2023-03-01T05:00:22;-0.50;99.90
37974;DHT22;23796;51.458;7.000;2023-03-01T05:02:58;-0.50;99.90
37974;DHT22;23796;51.458;7.000;2023-03-01T05:07:52;-0.50;99.90
37974;DHT22;23796;51.458;7.000;2023-03-01T05:10:18;-0.50;99.90
37974;DHT22;23796;51.458;7.000;2023-03-01T05:12:46;-0.50;99.90
37974;DHT22;23796;51.458;7.000;2023-03-01T05:15:12;-0.50;99.90
37974;DHT22;23796;51.458;7.000;2023-03-01T05:17:38;-0.50;99.90
37974;DHT22;23796;51.458;7.000;2023-03-01T05:20:06;-0.50;99.90
37974;DHT22;23796;51.458;7.000;2023-03-01T05:22:35;-0.50;99.90
37974;DHT22;23796;51.458;7.000;2023-03-01T05:25:02;-0.50;99.90
37974;DHT22;23796;51.458;7.000;2023-03-01T05:27:27;-0.50;99.90
37974;DHT22;23796;51.458;7.000;2023-03-01T05:29:55;-0.50;99.90
37974;DHT22;23796;51.458;7.000;2023-03-01T05:32:20;-0.50;99.90
37974;DHT22;23796;51.458;7.000;2023-03-01T05:34:48;-0.50;99.90
37974;DHT22;23796;51.458;7.000;2023-03-01T05:37:17;-0.50;99.90
37974;DHT22;23796;51.458;7.000;2023-03-01T05:39:45;-0.50;99.90
37974;DHT22;23796;51.458;7.000;2023-03-01T05:42:11;-0.60;99.90
37974;DHT22;23796;51.458;7.000;2023-03-01T05:44:37;-0.60;99.90
37974;DHT22;23796;51.458;7.000;2023-03-01T05:47:03;-0.50;99.90
37974;DHT22;23796;51.458;7.000;2023-03-01T05:49:28;-0.50;99.90
37974;DHT22;23796;51.458;7.000;2023-03-01T05:51:57;-0.50;99.90
37974;DHT22;23796;51.458;7.000;2023-03-01T05:54:25;-0.50;99.90
37974;DHT22;23796;51.458;7.000;2023-03-01T05:56:51;-0.50;99.90
37974;DHT22;23796;51.458;7.000;2023-03-01T05:59:16;-0.50;99.90
37974;DHT22;23796;51.458;7.000;2023-03-01T06:01:42;-0.50;99.90
37974;DHT22;23796;51.458;7.000;2023-03-01T06:04:10;-0.60;99.90
37974;DHT22;23796;51.458;7.000;2023-03-01T06:06:37;-0.60;99.90
37974;DHT22;23796;51.458;7.000;2023-03-01T06:09:06;-0.60;99.90
37974;DHT22;23796;51.458;7.000;2023-03-01T06:11:34;-0.60;99.90
37974;DHT22;23796;51.458;7.000;2023-03-01T06:14:00;-0.60;99.90
37974;DHT22;23796;51.458;7.000;2023-03-01T06:16:28;-0.50;99.90
37974;DHT22;23796;51.458;7.000;2023-03-01T06:18:54;-0.60;99.90
37974;DHT22;23796;51.458;7.000;2023-03-01T06:21:19;-0.60;99.90
37974;DHT22;23796;51.458;7.000;2023-03-01T06:23:45;-0.50;99.90
37974;DHT22;23796;51.458;7.000;2023-03-01T06:26:10;-0.60;99.90
37974;DHT22;23796;51.458;7.000;2023-03-01T06:28:36;-0.50;99.90
37974;DHT22;23796;51.458;7.000;2023-03-01T06:31:02;-0.50;99.90
37974;DHT22;23796;51.458;7.000;2023-03-01T06:33:30;-0.50;99.90
37974;DHT22;23796;51.458;7.000;2023-03-01T06:35:56;-0.60;99.90
37974;DHT22;23796;51.458;7.000;2023-03-01T06:38:24;-0.60;99.90
37974;DHT22;23796;51.458;7.000;2023-03-01T06:40:54;-0.60;99.90
37974;DHT22;23796;51.458;7.000;2023-03-01T06:43:21;-0.60;99.90
37974;DHT22;23796;51.458;7.000;2023-03-01T06:45:46;-0.60;99.90
37974;DHT22;23796;51.458;7.000;2023-03-01T06:48:12;-0.60;99.90
37974;DHT22;23796;51.458;7.000;2023-03-01T06:50:40;-0.50;99.90
37974;DHT22;23796;51.458;7.000;2023-03-01T06:53:05;-0.50;99.90
37974;DHT22;23796;51.458;7.000;2023-03-01T06:55:31;-0.50;99.90
37974;DHT22;23796;51.458;7.000;2023-03-01T06:58:01;-0.50;99.90
37974;DHT22;23796;51.458;7.000;2023-03-01T07:00:27;-0.50;99.90
37974;DHT22;23796;51.458;7.000;2023-03-01T07:03:00;-0.50;99.90
37974;DHT22;23796;51.458;7.000;2023-03-01T07:05:27;-0.50;99.90
37974;DHT22;23796;51.458;7.000;2023-03-01T07:07:54;-0.50;99.90
37974;DHT22;23796;51.458;7.000;2023-03-01T07:10:20;-0.60;99.90
37974;DHT22;23796;51.458;7.000;2023-03-01T07:12:46;-0.60;99.90
37974;DHT22;23796;51.458;7.000;2023-03-01T07:15:12;-0.50;99.90
37974;DHT22;23796;51.458;7.000;2023-03-01T07:17:37;-0.50;99.90
37974;DHT22;23796;51.458;7.000;2023-03-01T07:20:03;-0.40;99.90
37974;DHT22;23796;51.458;7.000;2023-03-01T07:22:29;-0.30;99.90
37974;DHT22;23796;51.458;7.000;2023-03-01T07:24:54;-0.30;99.90
37974;DHT22;23796;51.458;7.000;2023-03-01T07:27:20;-0.20;99.90
37974;DHT22;23796;51.458;7.000;2023-03-01T07:29:46;-0.10;99.90
37974;DHT22;23796;51.458;7.000;2023-03-01T07:32:13;-0.10;99.90
37974;DHT22;23796;51.458;7.000;2023-03-01T07:34:39;-0.10;99.90
37974;DHT22;23796;51.458;7.000;2023-03-01T07:37:05;0.00;99.90
37974;DHT22;23796;51.458;7.000;2023-03-01T07:39:30;0.00;99.90
37974;DHT22;23796;51.458;7.000;2023-03-01T07:41:59;0.00;99.90
37974;DHT22;23796;51.458;7.000;2023-03-01T07:44:24;0.10;99.90
37974;DHT22;23796;51.458;7.000;2023-03-01T07:46:50;0.10;99.90
37974;DHT22;23796;51.458;7.000;2023-03-01T07:49:17;0.10;99.90
37974;DHT22;23796;51.458;7.000;2023-03-01T07:51:43;0.10;99.90
37974;DHT22;23796;51.458;7.000;2023-03-01T07:54:08;0.20;99.90
37974;DHT22;23796;51.458;7.000;2023-03-01T07:56:34;0.10;99.90
37974;DHT22;23796;51.458;7.000;2023-03-01T07:59:00;0.10;99.90
37974;DHT22;23796;51.458;7.000;2023-03-01T08:01:26;0.20;99.90
37974;DHT22;23796;51.458;7.000;2023-03-01T08:03:51;0.20;99.90
37974;DHT22;23796;51.458;7.000;2023-03-01T08:06:18;0.30;99.90
37974;DHT22;23796;51.458;7.000;2023-03-01T08:08:44;0.40;99.90
37974;DHT22;23796;51.458;7.000;2023-03-01T08:11:12;0.50;99.90
37974;DHT22;23796;51.458;7.000;2023-03-01T08:13:38;0.60;99.90
37974;DHT22;23796;51.458;7.000;2023-03-01T08:16:09;0.70;99.90
37974;DHT22;23796;51.458;7.000;2023-03-01T08:18:35;0.80;99.90
37974;DHT22;23796;51.458;7.000;2023-03-01T08:21:05;0.90;99.90
37974;DHT22;23796;51.458;7.000;2023-03-01T08:23:33;0.90;99.90
37974;DHT22;23796;51.458;7.000;2023-03-01T08:26:06;1.10;99.90
37974;DHT22;23796;51.458;7.000;2023-03-01T08:28:32;1.10;99.90
37974;DHT22;23796;51.458;7.000;2023-03-01T08:30:58;1.20;99.90
37974;DHT22;23796;51.458;7.000;2023-03-01T08:33:24;1.20;99.90
37974;DHT22;23796;51.458;7.000;2023-03-01T08:35:49;1.30;99.90
37974;DHT22;23796;51.458;7.000;2023-03-01T08:38:15;1.30;99.90
37974;DHT22;23796;51.458;7.000;2023-03-01T08:40:41;1.40;99.90
37974;DHT22;23796;51.458;7.000;2023-03-01T08:43:06;1.30;99.90
37974;DHT22;23796;51.458;7.000;2023-03-01T08:45:32;1.40;99.90
37974;DHT22;23796;51.458;7.000;2023-03-01T08:47:57;1.50;99.90
37974;DHT22;23796;51.458;7.000;2023-03-01T08:50:23;1.60;99.90
37974;DHT22;23796;51.458;7.000;2023-03-01T08:52:50;1.60;99.90
37974;DHT22;23796;51.458;7.000;2023-03-01T08:55:16;1.70;99.90
37974;DHT22;23796;51.458;7.000;2023-03-01T08:57:44;1.80;99.90
37974;DHT22;23796;51.458;7.000;2023-03-01T09:00:12;1.90;99.90
37974;DHT22;23796;51.458;7.000;2023-03-01T09:02:40;2.00;99.90
37974;DHT22;23796;51.458;7.000;2023-03-01T09:05:08;2.10;99.90
37974;DHT22;23796;51.458;7.000;2023-03-01T09:07:36;2.10;99.90
37974;DHT22;23796;51.458;7.000;2023-03-01T09:10:01;2.20;99.90
37974;DHT22;23796;51.458;7.000;2023-03-01T09:12:27;2.20;99.90
37974;DHT22;23796;51.458;7.000;2023-03-01T09:14:53;2.30;99.90
37974;DHT22;23796;51.458;7.000;2023-03-01T09:17:18;2.40;99.90
37974;DHT22;23796;51.458;7.000;2023-03-01T09:19:49;2.50;99.90
37974;DHT22;23796;51.458;7.000;2023-03-01T09:22:17;2.50;99.90
37974;DHT22;23796;51.458;7.000;2023-03-01T09:24:42;2.60;99.90
37974;DHT22;23796;51.458;7.000;2023-03-01T09:27:08;2.60;99.90
37974;DHT22;23796;51.458;7.000;2023-03-01T09:29:36;2.80;99.90
37974;DHT22;23796;51.458;7.000;2023-03-01T09:32:02;2.90;99.90
37974;DHT22;23796;51.458;7.000;2023-03-01T09:34:31;3.20;99.90
37974;DHT22;23796;51.458;7.000;2023-03-01T09:36:57;3.50;99.90
37974;DHT22;23796;51.458;7.000;2023-03-01T09:39:23;3.60;99.90
37974;DHT22;23796;51.458;7.000;2023-03-01T09:42:02;3.60;99.90
37974;DHT22;23796;51.458;7.000;2023-03-01T09:47:28;3.80;99.90
37974;DHT22;23796;51.458;7.000;2023-03-01T09:50:14;3.80;99.90
37974;DHT22;23796;51.458;7.000;2023-03-01T09:53:03;3.70;99.90
37974;DHT22;23796;51.458;7.000;2023-03-01T09:55:46;4.40;99.90
37974;DHT22;23796;51.458;7.000;2023-03-01T09:58:47;5.60;99.90
37974;DHT22;23796;51.458;7.000;2023-03-01T10:01:38;6.70;99.90
37974;DHT22;23796;51.458;7.000;2023-03-01T10:04:29;6.50;99.90
37974;DHT22;23796;51.458;7.000;2023-03-01T10:09:38;7.00;99.90
37974;DHT22;23796;51.458;7.000;2023-03-01T10:15:05;7.60;99.20
37974;DHT22;23796;51.458;7.000;2023-03-01T10:17:43;7.00;99.30
37974;DHT22;23796;51.458;7.000;2023-03-01T10:22:43;7.50;98.40
37974;DHT22;23796;51.458;7.000;2023-03-01T10:25:19;8.50;97.30
37974;DHT22;23796;51.458;7.000;2023-03-01T10:27:52;8.00;97.00
37974;DHT22;23796;51.458;7.000;2023-03-01T10:30:40;8.10;96.70
37974;DHT22;23796;51.458;7.000;2023-03-01T10:35:40;10.60;92.00
37974;DHT22;23796;51.458;7.000;2023-03-01T10:38:13;10.70;91.20
37974;DHT22;23796;51.458;7.000;2023-03-01T10:41:06;9.60;90.80
37974;DHT22;23796;51.458;7.000;2023-03-01T10:43:47;9.50;91.00
37974;DHT22;23796;51.458;7.000;2023-03-01T10:46:31;9.60;91.40
37974;DHT22;23796;51.458;7.000;2023-03-01T10:49:18;10.00;90.50
37974;DHT22;23796;51.458;7.000;2023-03-01T10:51:46;9.80;89.30
37974;DHT22;23796;51.458;7.000;2023-03-01T10:56:57;8.00;91.40
37974;DHT22;23796;51.458;7.000;2023-03-01T11:02:23;7.30;93.10
37974;DHT22;23796;51.458;7.000;2023-03-01T11:04:58;6.90;93.60
37974;DHT22;23796;51.458;7.000;2023-03-01T11:07:28;6.90;94.50
37974;DHT22;23796;51.458;7.000;2023-03-01T11:09:56;7.50;94.20
37974;DHT22;23796;51.458;7.000;2023-03-01T11:12:22;8.80;92.60
37974;DHT22;23796;51.458;7.000;2023-03-01T11:14:53;9.40;91.20
37974;DHT22;23796;51.458;7.000;2023-03-01T11:17:29;9.10;90.70
37974;DHT22;23796;51.458;7.000;2023-03-01T11:20:05;9.40;90.90
37974;DHT22;23796;51.458;7.000;2023-03-01T11:22:32;10.80;88.60
37974;DHT22;23796;51.458;7.000;2023-03-01T11:25:00;11.30;86.00
37974;DHT22;23796;51.458;7.000;2023-03-01T11:27:30;10.90;84.70
37974;DHT22;23796;51.458;7.000;2023-03-01T11:32:39;10.90;83.20
37974;DHT22;23796;51.458;7.000;2023-03-01T11:35:27;10.50;83.00
37974;DHT22;23796;51.458;7.000;2023-03-01T11:43:26;9.70;84.30
37974;DHT22;23796;51.458;7.000;2023-03-01T11:46:38;10.50;82.60
37974;DHT22;23796;51.458;7.000;2023-03-01T11:52:13;10.30;82.00
37974;DHT22;23796;51.458;7.000;2023-03-01T11:54:46;9.50;84.30
37974;DHT22;23796;51.458;7.000;2023-03-01T11:57:20;9.30;85.80
37974;DHT22;23796;51.458;7.000;2023-03-01T12:30:10;7.10;91.50
37974;DHT22;23796;51.458;7.000;2023-03-01T12:36:09;7.20;91.00
37974;DHT22;23796;51.458;7.000;2023-03-01T12:38:59;7.20;90.80
37974;DHT22;23796;51.458;7.000;2023-03-01T12:44:11;7.00;91.10
37974;DHT22;23796;51.458;7.000;2023-03-01T12:46:52;7.00;91.00
37974;DHT22;23796;51.458;7.000;2023-03-01T12:49:48;6.80;91.70
37974;DHT22;23796;51.458;7.000;2023-03-01T12:52:37;7.00;91.60
37974;DHT22;23796;51.458;7.000;2023-03-01T12:55:16;6.80;92.10
37974;DHT22;23796;51.458;7.000;2023-03-01T12:58:00;7.00;91.50
37974;DHT22;23796;51.458;7.000;2023-03-01T13:08:38;7.20;91.70
37974;DHT22;23796;51.458;7.000;2023-03-01T13:11:15;7.30;91.80
37974;DHT22;23796;51.458;7.000;2023-03-01T13:13:44;7.40;92.90
37974;DHT22;23796;51.458;7.000;2023-03-01T13:21:43;7.30;90.70
37974;DHT22;23796;51.458;7.000;2023-03-01T13:24:33;7.20;91.50
37974;DHT22;23796;51.458;7.000;2023-03-01T13:29:56;7.30;91.60
37974;DHT22;23796;51.458;7.000;2023-03-01T13:32:32;7.40;91.70
37974;DHT22;23796;51.458;7.000;2023-03-01T13:37:43;7.40;91.80
37974;DHT22;23796;51.458;7.000;2023-03-01T13:42:45;7.20;92.00
37974;DHT22;23796;51.458;7.000;2023-03-01T13:47:58;7.40;92.10
37974;DHT22;23796;51.458;7.000;2023-03-01T13:50:43;7.30;92.00
37974;DHT22;23796;51.458;7.000;2023-03-01T13:53:17;7.40;91.80
37974;DHT22;23796;51.458;7.000;2023-03-01T13:55:47;7.40;92.00
37974;DHT22;23796;51.458;7.000;2023-03-01T14:01:31;7.40;91.90
37974;DHT22;23796;51.458;7.000;2023-03-01T14:03:59;7.40;92.20
37974;DHT22;23796;51.458;7.000;2023-03-01T14:06:27;7.50;92.00
37974;DHT22;23796;51.458;7.000;2023-03-01T14:14:29;7.40;92.20
37974;DHT22;23796;51.458;7.000;2023-03-01T14:20:18;7.40;92.40
37974;DHT22;23796;51.458;7.000;2023-03-01T14:22:44;7.30;92.50
37974;DHT22;23796;51.458;7.000;2023-03-01T14:25:24;7.40;92.60
37974;DHT22;23796;51.458;7.000;2023-03-01T14:28:13;7.50;92.40
37974;DHT22;23796;51.458;7.000;2023-03-01T14:30:44;7.50;92.50
37974;DHT22;23796;51.458;7.000;2023-03-01T14:33:26;7.50;92.40
37974;DHT22;23796;51.458;7.000;2023-03-01T14:38:31;7.20;92.40
37974;DHT22;23796;51.458;7.000;2023-03-01T14:41:01;7.20;92.50
37974;DHT22;23796;51.458;7.000;2023-03-01T14:43:29;7.30;92.30
37974;DHT22;23796;51.458;7.000;2023-03-01T14:45:56;7.30;92.40
37974;DHT22;23796;51.458;7.000;2023-03-01T14:48:22;7.40;92.30
37974;DHT22;23796;51.458;7.000;2023-03-01T14:50:49;7.10;92.50
37974;DHT22;23796;51.458;7.000;2023-03-01T14:53:24;7.10;92.30
37974;DHT22;23796;51.458;7.000;2023-03-01T14:55:53;7.20;92.50
37974;DHT22;23796;51.458;7.000;2023-03-01T14:58:21;7.30;92.50
37974;DHT22;23796;51.458;7.000;2023-03-01T15:00:56;7.30;92.40
37974;DHT22;23796;51.458;7.000;2023-03-01T15:03:43;7.10;92.30
37974;DHT22;23796;51.458;7.000;2023-03-01T15:06:10;7.00;92.60
37974;DHT22;23796;51.458;7.000;2023-03-01T15:08:41;7.10;93.00
37974;DHT22;23796;51.458;7.000;2023-03-01T15:13:39;7.40;92.90
37974;DHT22;23796;51.458;7.000;2023-03-01T15:19:18;7.50;92.50
37974;DHT22;23796;51.458;7.000;2023-03-01T15:21:48;7.30;92.50
37974;DHT22;23796;51.458;7.000;2023-03-01T15:24:22;7.30;92.90
37974;DHT22;23796;51.458;7.000;2023-03-01T15:27:01;7.40;93.00
37974;DHT22;23796;51.458;7.000;2023-03-01T15:29:33;7.40;93.10
37974;DHT22;23796;51.458;7.000;2023-03-01T15:32:04;7.40;93.20
37974;DHT22;23796;51.458;7.000;2023-03-01T15:34:39;7.40;93.50
37974;DHT22;23796;51.458;7.000;2023-03-01T15:40:00;7.30;93.60
37974;DHT22;23796;51.458;7.000;2023-03-01T15:47:47;7.20;93.80
37974;DHT22;23796;51.458;7.000;2023-03-01T15:50:34;7.20;93.70
37974;DHT22;23796;51.458;7.000;2023-03-01T15:53:05;7.30;93.60
37974;DHT22;23796;51.458;7.000;2023-03-01T15:55:37;7.30;93.70
37974;DHT22;23796;51.458;7.000;2023-03-01T15:58:22;7.30;93.40
37974;DHT22;23796;51.458;7.000;2023-03-01T16:00:50;7.30;92.70
37974;DHT22;23796;51.458;7.000;2023-03-01T16:03:22;7.20;92.80
37974;DHT22;23796;51.458;7.000;2023-03-01T16:05:49;7.10;92.90
37974;DHT22;23796;51.458;7.000;2023-03-01T16:08:18;7.10;93.00
37974;DHT22;23796;51.458;7.000;2023-03-01T16:10:48;7.00;93.20
37974;DHT22;23796;51.458;7.000;2023-03-01T16:13:15;6.90;93.40
37974;DHT22;23796;51.458;7.000;2023-03-01T16:15:41;6.90;93.40
37974;DHT22;23796;51.458;7.000;2023-03-01T16:18:07;6.80;93.50
37974;DHT22;23796;51.458;7.000;2023-03-01T16:20:35;6.80;93.40
37974;DHT22;23796;51.458;7.000;2023-03-01T16:23:04;6.80;93.30
37974;DHT22;23796;51.458;7.000;2023-03-01T16:25:34;6.80;93.40
37974;DHT22;23796;51.458;7.000;2023-03-01T16:28:00;6.70;93.40
37974;DHT22;23796;51.458;7.000;2023-03-01T16:30:30;6.70;93.60
37974;DHT22;23796;51.458;7.000;2023-03-01T16:32:56;6.70;93.70
37974;DHT22;23796;51.458;7.000;2023-03-01T16:35:22;6.60;94.10
37974;DHT22;23796;51.458;7.000;2023-03-01T16:37:50;6.60;93.80
37974;DHT22;23796;51.458;7.000;2023-03-01T16:40:19;6.50;93.90
37974;DHT22;23796;51.458;7.000;2023-03-01T16:42:47;6.50;94.00
37974;DHT22;23796;51.458;7.000;2023-03-01T16:45:15;6.40;94.30
37974;DHT22;23796;51.458;7.000;2023-03-01T16:47:45;6.40;94.20
37974;DHT22;23796;51.458;7.000;2023-03-01T16:50:13;6.30;94.30
37974;DHT22;23796;51.458;7.000;2023-03-01T16:52:39;6.30;94.60
37974;DHT22;23796;51.458;7.000;2023-03-01T16:55:06;6.30;94.90
37974;DHT22;23796;51.458;7.000;2023-03-01T16:57:36;6.20;95.20
37974;DHT22;23796;51.458;7.000;2023-03-01T17:00:07;6.20;95.50
37974;DHT22;23796;51.458;7.000;2023-03-01T17:02:34;6.10;95.60
37974;DHT22;23796;51.458;7.000;2023-03-01T17:05:01;6.10;95.80
37974;DHT22;23796;51.458;7.000;2023-03-01T17:07:28;6.00;96.00
37974;DHT22;23796;51.458;7.000;2023-03-01T17:09:54;6.00;96.10
37974;DHT22;23796;51.458;7.000;2023-03-01T17:12:20;5.90;96.30
37974;DHT22;23796;51.458;7.000;2023-03-01T17:14:45;5.90;96.30
37974;DHT22;23796;51.458;7.000;2023-03-01T17:17:13;5.80;96.40
37974;DHT22;23796;51.458;7.000;2023-03-01T17:19:39;5.80;96.70
37974;DHT22;23796;51.458;7.000;2023-03-01T17:22:11;5.70;96.70
37974;DHT22;23796;51.458;7.000;2023-03-01T17:24:40;5.70;96.90
37974;DHT22;23796;51.458;7.000;2023-03-01T17:27:07;5.60;97.00
37974;DHT22;23796;51.458;7.000;2023-03-01T17:29:33;5.60;97.00
37974;DHT22;23796;51.458;7.000;2023-03-01T17:31:59;5.60;97.10
37974;DHT22;23796;51.458;7.000;2023-03-01T17:34:25;5.50;97.30
37974;DHT22;23796;51.458;7.000;2023-03-01T17:36:51;5.50;97.50
37974;DHT22;23796;51.458;7.000;2023-03-01T17:39:26;5.40;97.50
37974;DHT22;23796;51.458;7.000;2023-03-01T17:42:01;5.40;97.70
37974;DHT22;23796;51.458;7.000;2023-03-01T17:44:29;5.30;97.90
37974;DHT22;23796;51.458;7.000;2023-03-01T17:46:55;5.30;98.00
37974;DHT22;23796;51.458;7.000;2023-03-01T17:49:23;5.20;98.40
37974;DHT22;23796;51.458;7.000;2023-03-01T17:51:48;5.20;98.50
37974;DHT22;23796;51.458;7.000;2023-03-01T17:54:14;5.20;98.60
37974;DHT22;23796;51.458;7.000;2023-03-01T17:56:42;5.10;98.80
37974;DHT22;23796;51.458;7.000;2023-03-01T17:59:07;5.10;98.90
37974;DHT22;23796;51.458;7.000;2023-03-01T18:01:33;5.10;99.10
37974;DHT22;23796;51.458;7.000;2023-03-01T18:04:05;5.00;99.10
37974;DHT22;23796;51.458;7.000;2023-03-01T18:06:31;5.00;99.40
37974;DHT22;23796;51.458;7.000;2023-03-01T18:08:59;4.90;99.60
37974;DHT22;23796;51.458;7.000;2023-03-01T18:11:27;4.90;99.80